Time;durP1;ratioP1;P1;durP2;ratioP2;P2;SDS_P1;SDS_P2;PMS_P1;PMS_P2;Temp;Humidity;BMP_temperature;BMP_pressure;BME280_temperature;BME280_humidity;BME280_pressure;Samples;Min_cycle;Max_cycle;Signal;HPM_P1;HPM_P2
2021/06/07 00:02:12;;;;;;;8.75;4.00;;;8.60;99.90;;;7.27;96.81;101870.97;4994455;28;20403;-75
2021/06/07 00:04:39;;;;;;;8.35;4.38;;;8.70;99.90;;;7.44;97.96;101873.34;4970985;28;20131;-74
2021/06/07 00:07:08;;;;;;;5.93;4.22;;;8.90;99.90;;;7.52;97.77;101858.38;4993722;28;20492;-75
2021/06/07 00:09:34;;;;;;;8.60;4.50;;;8.90;99.90;;;7.62;97.45;101873.94;5001887;28;20066;-75
2021/06/07 00:12:10;;;;;;;9.70;5.38;;;9.00;99.90;;;7.67;96.83;101866.91;4992519;28;20472;-74
2021/06/07 00:14:36;;;;;;;8.55;5.00;;;9.00;99.90;;;7.58;95.81;101858.28;5011911;28;20544;-75
2021/06/07 00:17:05;;;;;;;11.43;4.68;;;8.90;99.90;;;7.58;96.02;101858.28;5011717;28;20614;-75
2021/06/07 00:19:33;;;;;;;5.60;4.00;;;8.90;99.90;;;7.57;96.36;101859.16;5004127;28;20069;-75
2021/06/07 00:22:00;;;;;;;5.82;3.85;;;8.90;99.90;;;7.49;96.09;101861.03;4982192;28;20422;-74
2021/06/07 00:24:27;;;;;;;5.57;3.78;;;8.80;99.90;;;7.36;96.79;101862.13;5003394;28;20069;-75
2021/06/07 00:26:53;;;;;;;6.20;4.05;;;8.70;99.90;;;7.31;96.76;101853.47;4977531;28;20076;-74
2021/06/07 00:29:19;;;;;;;9.48;4.28;;;8.60;99.90;;;7.28;97.03;101857.00;5002842;28;20174;-75
2021/06/07 00:31:46;;;;;;;8.75;4.43;;;8.60;99.90;;;7.33;97.93;101859.56;4995850;28;20522;-76
2021/06/07 00:34:12;;;;;;;9.32;4.68;;;8.70;99.90;;;7.38;98.18;101857.72;5011423;28;20076;-75
2021/06/07 00:36:39;;;;;;;10.80;4.65;;;8.70;99.90;;;7.39;97.55;101852.47;5001378;28;20449;-74
2021/06/07 00:39:13;;;;;;;9.70;5.38;;;8.80;99.90;;;7.43;97.76;101853.28;4994254;28;20108;-75
2021/06/07 00:41:41;;;;;;;10.82;5.20;;;8.80;99.90;;;7.47;98.15;101859.31;4991277;28;20069;-75
2021/06/07 00:44:16;;;;;;;8.88;5.40;;;8.80;99.90;;;7.43;99.61;101857.63;5011242;28;20053;-75
2021/06/07 00:46:42;;;;;;;8.38;5.53;;;8.70;99.90;;;7.29;99.21;101858.72;5022252;28;22318;-75
2021/06/07 00:49:10;;;;;;;8.23;5.10;;;8.70;99.90;;;7.27;98.99;101867.50;4995224;28;20064;-75
2021/06/07 00:51:37;;;;;;;11.32;5.18;;;8.60;99.90;;;7.32;99.57;101857.81;5013695;28;20066;-74
2021/06/07 00:54:05;;;;;;;8.18;5.10;;;8.60;99.90;;;7.30;98.65;101856.97;5004193;28;20525;-75
2021/06/07 00:56:31;;;;;;;9.23;4.88;;;8.60;99.90;;;7.28;98.32;101856.13;4980775;28;20184;-75
2021/06/07 00:58:57;;;;;;;11.55;5.65;;;8.70;99.90;;;7.31;99.70;101862.19;4991057;28;20475;-75
2021/06/07 01:01:26;;;;;;;10.02;4.85;;;8.70;99.90;;;7.31;99.51;101854.31;4996361;28;20066;-74
2021/06/07 01:03:56;;;;;;;8.77;5.25;;;8.70;99.90;;;7.30;99.68;101851.72;4997859;28;20066;-75
2021/06/07 01:06:25;;;;;;;9.63;5.63;;;8.60;99.90;;;7.23;99.11;101855.34;4988530;28;20166;-75
2021/06/07 01:08:52;;;;;;;7.88;4.75;;;8.50;99.90;;;7.09;98.18;101852.91;5009921;28;20071;-75
2021/06/07 01:11:19;;;;;;;6.53;4.53;;;8.40;99.90;;;6.93;97.33;101854.88;5003683;28;20173;-75
2021/06/07 01:13:46;;;;;;;6.65;4.10;;;8.30;99.90;;;6.81;97.01;101850.66;5024372;28;20066;-75
2021/06/07 01:16:12;;;;;;;11.25;4.25;;;8.10;99.90;;;6.70;97.33;101848.19;5003163;28;20437;-75
2021/06/07 01:18:42;;;;;;;5.75;3.67;;;8.10;99.90;;;6.74;97.31;101847.28;5007908;28;20117;-76
2021/06/07 01:21:12;;;;;;;7.22;4.88;;;8.10;99.90;;;6.69;97.01;101833.34;5032643;28;20082;-75
2021/06/07 01:23:41;;;;;;;9.20;4.40;;;8.00;99.90;;;6.62;96.82;101844.78;5012217;28;20070;-75
2021/06/07 01:26:11;;;;;;;8.30;4.20;;;7.90;99.90;;;6.55;97.33;101830.06;5005979;28;20112;-75
2021/06/07 01:28:40;;;;;;;8.18;4.28;;;7.90;99.90;;;6.52;97.25;101840.53;4989192;28;20073;-75
2021/06/07 01:31:08;;;;;;;8.07;4.10;;;8.00;99.90;;;6.53;97.99;101847.53;5022007;28;20060;-75
2021/06/07 01:33:36;;;;;;;18.73;4.93;;;8.00;99.90;;;6.59;99.52;101847.47;4986950;28;20528;-75
2021/06/07 01:36:05;;;;;;;7.05;4.43;;;8.10;99.90;;;6.69;100.00;101849.06;5002358;28;20066;-75
2021/06/07 01:38:31;;;;;;;6.75;4.93;;;8.10;99.90;;;6.78;100.00;101841.13;4983384;28;20165;-75
2021/06/07 01:43:42;;;;;;;9.60;5.47;;;8.40;99.90;;;7.01;100.00;101832.06;4988560;28;20070;-75
2021/06/07 01:46:09;;;;;;;8.38;5.47;;;8.40;99.90;;;7.05;100.00;101841.63;4989131;28;20078;-75
2021/06/07 01:48:36;;;;;;;15.05;5.10;;;8.40;99.90;;;7.04;100.00;101836.38;5005967;28;20078;-75
2021/06/07 01:51:41;;;;;;;10.82;5.35;;;8.40;99.90;;;6.96;100.00;101831.28;4956674;28;20129;-76
2021/06/07 01:54:07;;;;;;;8.48;4.60;;;8.10;99.90;;;6.55;97.45;101836.16;5008557;28;20136;-76
2021/06/07 01:56:33;;;;;;;9.95;4.10;;;7.90;99.90;;;6.28;97.13;101829.47;4999483;28;20062;-76
2021/06/07 01:58:59;;;;;;;8.75;4.25;;;7.70;99.90;;;6.23;97.83;101827.81;5002009;28;20059;-75
2021/06/07 02:01:25;;;;;;;7.00;4.25;;;7.70;99.90;;;6.28;99.66;101826.88;4996369;28;20405;-76
2021/06/07 02:03:51;;;;;;;15.00;5.65;;;7.80;99.90;;;6.40;100.00;101825.03;4998861;28;20609;-75
2021/06/07 02:06:22;;;;;;;10.98;5.80;;;7.80;99.90;;;6.42;100.00;101831.09;5007191;28;20090;-75
2021/06/07 02:08:48;;;;;;;11.45;5.93;;;7.80;99.90;;;6.45;100.00;101823.19;5000543;28;20150;-75
2021/06/07 02:11:26;;;;;;;8.00;5.25;;;7.90;99.90;;;6.29;100.00;101823.38;4981304;28;20066;-75
2021/06/07 02:13:57;;;;;;;8.00;4.88;;;7.60;99.90;;;6.10;100.00;101829.69;4960534;28;20100;-75
2021/06/07 02:16:29;;;;;;;7.85;4.95;;;7.40;99.90;;;5.85;98.77;101829.03;4984347;28;20082;-76
2021/06/07 02:18:57;;;;;;;8.10;4.43;;;7.20;99.90;;;5.74;98.99;101821.28;4969703;28;20067;-75
2021/06/07 02:21:25;;;;;;;6.40;4.47;;;7.20;99.90;;;5.71;99.57;101824.78;5003846;28;20572;-75
2021/06/07 02:23:52;;;;;;;11.18;4.97;;;7.20;99.90;;;5.75;100.00;101820.41;4988801;28;20144;-75
2021/06/07 02:26:20;;;;;;;8.27;5.18;;;7.30;99.90;;;5.84;100.00;101822.94;4971760;28;20133;-76
2021/06/07 02:28:51;;;;;;;9.07;5.72;;;7.40;99.90;;;5.97;100.00;101815.88;4984990;28;20151;-75
2021/06/07 02:31:20;;;;;;;8.05;5.45;;;7.50;99.90;;;6.08;100.00;101818.38;4999995;28;20138;-75
2021/06/07 02:33:52;;;;;;;12.27;5.82;;;7.60;99.90;;;6.18;100.00;101821.75;5005854;28;20084;-76
2021/06/07 02:36:21;;;;;;;9.02;6.15;;;7.60;99.90;;;6.24;100.00;101816.47;5011227;28;20109;-76
2021/06/07 02:38:48;;;;;;;12.63;5.60;;;7.70;99.90;;;6.30;100.00;101814.63;4991000;28;20071;-75
2021/06/07 02:41:14;;;;;;;13.25;7.10;;;7.80;99.90;;;6.46;100.00;101815.34;5038997;28;20060;-76
2021/06/07 02:43:40;;;;;;;13.07;8.02;;;7.90;99.90;;;6.53;100.00;101811.75;5006192;28;20149;-76
2021/06/07 02:46:06;;;;;;;16.15;8.90;;;8.00;99.90;;;6.65;100.00;101808.13;5012418;28;22722;-76
2021/06/07 02:48:34;;;;;;;15.07;8.55;;;8.20;99.90;;;6.81;100.00;101805.31;5023477;28;20155;-75
2021/06/07 02:51:00;;;;;;;16.40;9.07;;;8.30;99.90;;;6.92;100.00;101809.50;5024601;28;20070;-75
2021/06/07 02:53:26;;;;;;;13.38;8.70;;;8.50;99.90;;;7.03;100.00;101805.88;5002736;28;20514;-76
2021/06/07 02:55:54;;;;;;;14.98;9.45;;;8.50;99.90;;;7.11;100.00;101801.38;4996417;28;20071;-75
2021/06/07 02:58:23;;;;;;;20.98;9.65;;;8.60;99.90;;;7.20;100.00;101801.22;4997400;28;20078;-75
2021/06/07 03:00:58;;;;;;;17.52;9.40;;;8.70;99.90;;;7.28;100.00;101806.34;5017740;28;20058;-76
2021/06/07 03:03:25;;;;;;;14.02;8.43;;;8.70;99.90;;;7.26;100.00;101811.63;4995802;28;20081;-75
2021/06/07 03:05:54;;;;;;;15.05;7.63;;;8.70;99.90;;;7.24;100.00;101809.94;4966452;28;20070;-75
2021/06/07 03:08:24;;;;;;;12.90;7.63;;;8.60;99.90;;;7.21;100.00;101805.56;4972234;28;20077;-76
2021/06/07 03:10:54;;;;;;;12.93;7.13;;;8.60;99.90;;;7.18;100.00;101805.63;5000075;28;22447;-75
2021/06/07 03:13:23;;;;;;;14.10;7.40;;;8.60;99.90;;;7.14;100.00;101811.81;4993754;28;20383;-75
2021/06/07 03:15:52;;;;;;;11.90;7.43;;;8.60;99.90;;;7.13;100.00;101817.94;5011963;28;20063;-75
2021/06/07 03:18:18;;;;;;;13.32;8.18;;;8.60;99.90;;;7.18;100.00;101808.25;5020695;28;20395;-75
2021/06/07 03:20:44;;;;;;;15.30;7.55;;;8.70;99.90;;;7.28;100.00;101816.81;4987482;28;20062;-75
2021/06/07 03:23:21;;;;;;;12.75;8.02;;;8.80;99.90;;;7.35;100.00;101810.63;4971660;28;20113;-76
2021/06/07 03:25:50;;;;;;;13.95;8.40;;;8.90;99.90;;;7.42;100.00;101812.22;5003008;28;20685;-76
2021/06/07 03:28:19;;;;;;;12.05;6.90;;;8.90;99.90;;;7.47;100.00;101820.88;4996991;28;20066;-76
2021/06/07 03:30:49;;;;;;;9.50;5.65;;;8.90;99.90;;;7.45;100.00;101814.81;5001651;28;20067;-76
2021/06/07 03:33:15;;;;;;;11.25;5.97;;;8.90;99.90;;;7.42;100.00;101809.63;4987364;28;20073;-76
2021/06/07 03:35:43;;;;;;;9.68;6.70;;;8.90;99.90;;;7.48;100.00;101813.91;5012711;28;20534;-75
2021/06/07 03:38:11;;;;;;;11.20;6.25;;;8.90;99.90;;;7.55;100.00;101818.16;4976901;28;20080;-75
2021/06/07 03:40:41;;;;;;;8.27;5.50;;;9.40;99.90;;;8.13;100.00;101814.47;4996655;28;20073;-76
2021/06/07 03:43:08;;;;;;;10.35;5.43;;;10.70;99.90;;;9.31;98.25;101818.13;4990695;28;20064;-76
2021/06/07 03:45:34;;;;;;;19.95;5.85;;;12.10;99.90;;;10.61;92.29;101822.59;4987418;28;20070;-75
2021/06/07 03:48:01;;;;;;;6.85;3.85;;;13.60;99.90;;;11.78;86.64;101818.91;4997368;28;20070;-76
2021/06/07 03:50:29;;;;;;;7.65;4.03;;;15.00;99.90;;;13.01;79.41;101811.78;4980040;28;20094;-76
2021/06/07 03:52:55;;;;;;;7.60;4.00;;;16.20;99.90;;;14.03;75.83;101824.34;4994219;28;20053;-76
2021/06/07 03:55:24;;;;;;;7.65;3.80;;;17.40;99.90;;;15.01;71.49;101824.34;4977778;28;20158;-76
2021/06/07 03:57:52;;;;;;;4.47;3.40;;;18.30;99.90;;;15.78;67.32;101817.91;4963522;28;20504;-76
2021/06/07 04:00:22;;;;;;;6.00;3.95;;;19.20;99.90;;;16.70;63.56;101812.19;4995748;28;20025;-76
2021/06/07 04:02:48;;;;;;;5.55;3.78;;;19.70;99.90;;;17.29;63.17;101815.97;4968923;28;20025;-76
2021/06/07 04:05:15;;;;;;;6.78;3.30;;;20.40;99.90;;;17.87;60.70;101813.53;4969151;28;20037;-76
2021/06/07 04:07:42;;;;;;;4.18;2.70;;;20.70;99.90;;;18.13;59.54;101812.78;4997333;28;20456;-76
2021/06/07 04:10:16;;;;;;;4.20;3.00;;;21.50;99.90;;;18.94;56.69;101809.53;4994863;28;20028;-76
2021/06/07 04:12:46;;;;;;;6.55;2.97;;;21.60;99.90;;;19.65;54.96;101812.84;5015929;28;20437;-76
2021/06/07 04:15:17;;;;;;;6.00;2.88;;;22.80;97.40;;;20.22;53.17;101808.97;4955143;28;21060;-77
2021/06/07 04:17:44;;;;;;;4.47;2.90;;;23.40;95.70;;;20.75;51.89;101811.47;4977302;28;20037;-76
2021/06/07 04:20:13;;;;;;;4.22;2.80;;;23.80;93.60;;;20.59;51.45;101809.91;5003728;28;20853;-77
2021/06/07 04:22:41;;;;;;;3.47;2.83;;;24.10;93.10;;;20.81;49.96;101805.69;4995334;28;20025;-76
2021/06/07 04:25:09;;;;;;;4.53;2.70;;;24.10;92.50;;;20.31;51.49;101819.03;4992414;28;20029;-76
2021/06/07 04:27:35;;;;;;;6.18;2.95;;;24.30;92.80;;;21.38;50.17;101813.06;5011931;28;20028;-76
2021/06/07 04:30:05;;;;;;;3.30;2.67;;;24.40;92.40;;;21.68;50.24;101807.25;5030121;28;20531;-77
2021/06/07 04:32:36;;;;;;;4.22;2.70;;;24.70;92.30;;;22.27;48.40;101814.31;5002150;28;20119;-76
2021/06/07 04:35:05;;;;;;;5.28;3.40;;;25.60;90.90;;;22.93;46.13;101810.81;4992642;28;20088;-77
2021/06/07 04:37:31;;;;;;;4.45;2.78;;;26.30;90.20;;;23.10;45.38;101814.84;5002019;28;20111;-76
2021/06/07 04:39:59;;;;;;;4.82;3.15;;;26.20;87.20;;;22.32;46.91;101816.63;5013405;28;20424;-77
2021/06/07 04:42:25;;;;;;;6.03;3.38;;;25.50;88.50;;;21.66;49.25;101817.22;4990117;28;20035;-76
2021/06/07 04:44:51;;;;;;;5.93;3.42;;;24.90;90.70;;;22.09;49.23;101819.28;4982525;28;20385;-77
2021/06/07 04:47:17;;;;;;;5.10;3.83;;;25.80;90.60;;;23.30;47.27;101823.91;4983941;28;20029;-77
2021/06/07 04:49:43;;;;;;;4.60;3.22;;;26.80;88.40;;;24.40;44.19;101818.16;4969982;28;20037;-76
2021/06/07 04:52:09;;;;;;;5.60;3.33;;;26.40;86.50;;;24.55;41.77;101822.22;4971275;28;20079;-77
2021/06/07 04:54:35;;;;;;;4.10;3.20;;;25.50;88.40;;;25.08;41.02;101813.00;4985089;28;20029;-73
2021/06/07 04:57:02;;;;;;;4.05;3.00;;;25.40;89.90;;;24.93;41.45;101823.31;4985989;28;20033;-74
2021/06/07 04:59:27;;;;;;;5.25;3.28;;;25.00;90.30;;;24.45;42.64;101826.66;4963181;28;20021;-74
2021/06/07 05:01:53;;;;;;;9.95;3.88;;;25.40;90.20;;;24.92;41.65;101818.91;5023368;28;20033;-73
2021/06/07 05:04:19;;;;;;;5.60;3.60;;;26.30;90.20;;;24.86;43.59;101820.34;5015741;28;20099;-74
2021/06/07 05:06:45;;;;;;;5.68;3.90;;;27.50;85.90;;;25.53;40.83;101823.28;5010156;28;20029;-73
2021/06/07 05:09:11;;;;;;;4.45;3.67;;;28.50;81.60;;;26.54;37.55;101818.16;4979344;28;20037;-75
2021/06/07 05:11:39;;;;;;;7.75;4.20;;;28.20;79.70;;;26.79;36.43;101822.91;4993450;28;20428;-73
2021/06/07 05:14:05;;;;;;;8.35;4.07;;;;;;;26.77;35.33;101819.50;4995485;28;20033;-73
2021/06/07 05:16:33;;;;;;;6.63;4.65;;;27.90;79.40;;;26.68;36.47;101827.69;5011996;28;20121;-74
2021/06/07 05:18:59;;;;;;;5.10;3.60;;;29.40;77.80;;;27.56;36.05;101830.59;4985731;28;20025;-74
2021/06/07 05:21:25;;;;;;;5.70;3.90;;;30.20;75.70;;;28.19;35.15;101824.16;4988098;28;20082;-74
2021/06/07 05:23:51;;;;;;;5.53;3.78;;;30.70;73.10;;;28.16;35.08;101825.31;4995048;28;20063;-74
2021/06/07 05:26:17;;;;;;;5.68;4.18;;;30.60;71.50;;;28.66;33.10;101818.31;4978334;28;20025;-74
2021/06/07 05:28:42;;;;;;;6.28;4.07;;;30.90;71.20;;;28.87;33.33;101825.13;4986309;28;20025;-74
2021/06/07 05:31:08;;;;;;;4.10;3.47;;;31.80;69.20;;;29.44;31.50;101817.97;5017642;28;20033;-74
2021/06/07 05:33:37;;;;;;;4.90;3.30;;;32.30;67.20;;;29.70;31.18;101821.53;5002664;28;20040;-74
2021/06/07 05:36:03;;;;;;;4.65;3.53;;;32.40;65.40;;;29.68;30.60;101827.13;4993609;28;20029;-74
2021/06/07 05:38:29;;;;;;;3.75;2.75;;;32.10;65.40;;;29.36;31.78;101823.38;4987817;28;20026;-74
2021/06/07 05:40:58;;;;;;;3.28;2.80;;;32.30;64.10;;;29.68;29.90;101823.53;5011412;28;20380;-74
2021/06/07 05:43:24;;;;;;;4.32;3.00;;;31.60;65.30;;;27.57;31.22;101838.56;4993558;28;20540;-74
2021/06/07 05:45:53;;;;;;;4.05;2.58;;;30.60;63.60;;;26.92;31.55;101829.81;4997403;28;20032;-74
2021/06/07 05:48:19;;;;;;;3.38;2.47;;;29.90;66.70;;;26.46;34.66;101827.03;5026681;28;20044;-74
2021/06/07 05:50:45;;;;;;;5.40;2.22;;;29.40;68.70;;;25.77;38.21;101829.06;5002606;28;20124;-74
2021/06/07 05:53:14;;;;;;;6.15;2.58;;;28.50;71.30;;;25.54;38.45;101828.50;5008226;28;20068;-74
2021/06/07 05:55:45;;;;;;;2.53;2.10;;;28.60;69.80;;;27.00;34.17;101829.91;5003369;28;20057;-74
2021/06/07 05:58:19;;;;;;;3.78;2.58;;;29.50;66.70;;;27.41;34.18;101824.94;4990221;28;20500;-74
2021/06/07 06:00:51;;;;;;;3.88;2.50;;;29.00;68.30;;;26.14;34.40;101827.44;4981055;28;20034;-74
2021/06/07 06:03:17;;;;;;;3.55;2.25;;;29.20;71.10;;;25.89;38.58;101834.31;5002530;28;20022;-74
2021/06/07 06:05:45;;;;;;;3.40;2.47;;;28.90;72.70;;;26.23;37.18;101839.19;4976370;28;20034;-73
2021/06/07 06:08:11;;;;;;;4.35;2.45;;;29.30;69.10;;;26.88;34.19;101837.34;4981542;28;20455;-74
2021/06/07 06:10:39;;;;;;;6.03;2.83;;;29.20;70.10;;;27.01;35.00;101829.72;4984761;28;20036;-73
2021/06/07 06:13:06;;;;;;;4.28;2.47;;;29.30;67.20;;;27.47;33.16;101831.53;5004093;28;20025;-73
2021/06/07 06:15:33;;;;;;;2.65;2.25;;;29.90;67.90;;;27.55;33.74;101828.91;4989589;28;20402;-74
2021/06/07 06:18:00;;;;;;;5.53;2.30;;;29.60;67.60;;;27.52;32.74;101837.34;5003427;28;20041;-74
2021/06/07 06:20:29;;;;;;;3.05;1.80;;;29.70;66.20;;;27.15;33.04;101832.94;4991110;28;20033;-73
2021/06/07 06:22:57;;;;;;;4.95;2.10;;;29.60;65.30;;;25.65;37.36;101835.59;5015378;28;20041;-73
2021/06/07 06:25:23;;;;;;;4.32;2.10;;;29.00;69.00;;;26.68;33.69;101828.50;5001175;28;20033;-73
2021/06/07 06:27:50;;;;;;;2.78;1.90;;;28.50;67.30;;;26.72;34.58;101824.53;5020704;28;20044;-73
2021/06/07 06:30:22;;;;;;;4.53;2.40;;;29.00;68.20;;;26.08;37.66;101834.25;5008456;28;20444;-74
2021/06/07 06:32:53;;;;;;;3.42;2.10;;;28.90;70.70;;;26.45;33.35;101840.69;4980769;28;20389;-73
2021/06/07 06:35:19;;;;;;;4.55;1.95;;;28.90;67.40;;;26.08;35.88;101830.72;5006533;28;20042;-74
2021/06/07 06:37:47;;;;;;;3.03;2.30;;;27.50;69.80;;;25.18;37.48;101847.06;5001494;28;20375;-73
2021/06/07 06:40:27;;;;;;;2.92;1.83;;;28.00;72.00;;;26.55;35.42;101830.69;4979009;28;20025;-73
2021/06/07 06:42:56;;;;;;;2.33;2.10;;;28.60;70.00;;;26.63;33.64;101829.97;4967245;28;20478;-74
2021/06/07 06:45:23;;;;;;;2.85;1.70;;;28.30;69.70;;;26.07;34.43;101837.97;4995626;28;20056;-73
2021/06/07 06:48:02;;;;;;;4.93;1.90;;;28.50;70.90;;;26.24;36.41;101835.50;4986677;28;20049;-73
2021/06/07 06:50:32;;;;;;;4.65;2.05;;;28.40;70.50;;;26.10;38.49;101839.53;4982620;28;20500;-73
2021/06/07 06:52:59;;;;;;;3.92;1.90;;;27.90;70.50;;;26.44;35.01;101844.41;4966990;28;20041;-74
2021/06/07 06:55:26;;;;;;;2.80;1.80;;;28.60;71.70;;;26.41;37.64;101840.13;4982021;28;20026;-73
2021/06/07 06:57:52;;;;;;;4.57;1.92;;;28.20;70.70;;;27.27;34.15;101833.56;4999084;28;20456;-73
2021/06/07 07:00:18;;;;;;;3.40;2.28;;;28.90;70.30;;;27.68;34.17;101833.94;4983459;28;20615;-73
2021/06/07 07:02:44;;;;;;;2.08;1.88;;;29.00;70.20;;;27.19;35.01;101839.69;4975515;28;20034;-73
2021/06/07 07:05:10;;;;;;;4.65;2.20;;;28.40;69.90;;;26.15;36.28;101848.88;4973030;28;20127;-73
2021/06/07 07:07:36;;;;;;;2.80;2.00;;;27.80;72.80;;;26.09;37.29;101845.91;4950094;28;20029;-73
2021/06/07 07:10:08;;;;;;;6.10;2.08;;;27.90;75.10;;;27.15;36.25;101843.75;4957048;28;20104;-73
2021/06/07 07:12:34;;;;;;;2.70;2.00;;;27.70;73.00;;;26.48;38.48;101851.16;4972821;28;20228;-73
2021/06/07 07:15:01;;;;;;;3.72;1.80;;;27.30;75.80;;;25.66;38.56;101856.19;4982092;28;20108;-73
2021/06/07 07:17:28;;;;;;;3.03;2.20;;;27.10;74.50;;;25.88;37.87;101855.03;4984083;28;20045;-73
2021/06/07 07:19:54;;;;;;;2.65;2.15;;;27.00;73.60;;;26.07;37.22;101842.50;4981650;28;20048;-73
2021/06/07 07:22:21;;;;;;;2.30;2.08;;;26.80;74.20;;;25.70;36.61;101851.34;4984233;28;20014;-73
2021/06/07 07:24:50;;;;;;;3.33;1.95;;;26.50;73.80;;;25.00;37.25;101847.88;4980118;28;20030;-73
2021/06/07 07:27:19;;;;;;;1.90;1.70;;;27.00;73.70;;;25.88;34.85;101844.25;4966054;28;20060;-73
2021/06/07 07:29:46;;;;;;;2.90;1.90;;;27.30;72.90;;;26.03;35.92;101847.34;4974599;28;20109;-73
2021/06/07 07:32:13;;;;;;;6.10;2.30;;;27.00;71.30;;;26.15;34.66;101850.72;4973970;28;20509;-73
2021/06/07 07:34:41;;;;;;;5.90;2.30;;;27.00;73.80;;;25.63;36.37;101844.81;4980937;28;20049;-73
2021/06/07 07:37:09;;;;;;;4.30;2.10;;;26.40;73.00;;;25.34;36.00;101841.13;4983764;28;20402;-73
2021/06/07 07:39:36;;;;;;;4.45;1.95;;;27.00;76.30;;;26.44;35.97;101847.09;4993166;28;20026;-73
2021/06/07 07:42:04;;;;;;;3.58;1.70;;;27.00;75.40;;;26.01;35.89;101840.41;4999076;28;20033;-73
2021/06/07 07:44:30;;;;;;;3.30;1.85;;;27.40;74.80;;;27.15;35.87;101841.03;4998835;28;20120;-73
2021/06/07 07:46:56;;;;;;;2.65;1.98;;;28.40;73.40;;;27.94;34.48;101845.66;4949328;28;20029;-73
2021/06/07 07:49:23;;;;;;;8.10;2.58;;;28.50;71.10;;;27.72;33.70;101849.69;4983513;28;20462;-73
2021/06/07 07:51:51;;;;;;;4.22;2.30;;;27.90;72.00;;;26.87;34.13;101842.91;5002534;28;20104;-72
2021/06/07 07:54:17;;;;;;;4.10;2.30;;;28.10;71.00;;;27.06;32.89;101850.03;5002808;28;20602;-73
2021/06/07 07:56:43;;;;;;;4.25;2.13;;;28.30;71.50;;;27.34;34.32;101842.75;4989508;28;20131;-73
2021/06/07 07:59:10;;;;;;;4.70;2.17;;;28.20;68.90;;;26.18;35.93;101853.16;4975144;28;20085;-73
2021/06/07 08:01:36;;;;;;;3.05;2.20;;;28.40;72.40;;;27.35;35.35;101849.88;4997727;28;20505;-72
2021/06/07 08:04:03;;;;;;;2.70;2.50;;;27.80;72.10;;;25.30;36.37;101845.09;4980650;28;20035;-73
2021/06/07 08:06:29;;;;;;;5.72;2.70;;;27.10;74.80;;;25.42;38.55;101853.91;4984438;28;20381;-75
2021/06/07 08:08:55;;;;;;;4.75;2.92;;;27.40;71.90;;;24.49;37.72;101864.00;4985059;28;20090;-76
2021/06/07 08:11:21;;;;;;;3.75;2.58;;;26.30;78.10;;;24.51;43.06;101859.34;4957911;28;20046;-76
2021/06/07 08:13:48;;;;;;;3.88;2.60;;;26.80;76.80;;;26.03;38.80;101849.22;4974015;28;20037;-75
2021/06/07 08:16:14;;;;;;;4.45;2.58;;;27.20;73.40;;;26.15;36.80;101842.63;4953555;28;20079;-76
2021/06/07 08:18:41;;;;;;;5.25;2.50;;;27.60;74.90;;;26.71;37.99;101846.28;4966039;28;20053;-76
2021/06/07 08:21:07;;;;;;;4.50;2.53;;;28.00;72.90;;;26.35;36.41;101841.56;4970079;28;20037;-76
2021/06/07 08:23:34;;;;;;;3.92;2.65;;;27.50;73.40;;;25.49;38.65;101843.41;4999788;28;20026;-75
2021/06/07 08:26:00;;;;;;;3.05;2.40;;;;;;;26.32;36.80;101849.09;4999530;28;20367;-76
2021/06/07 08:28:26;;;;;;;3.38;2.58;;;28.10;73.40;;;26.73;34.60;101845.13;4985433;28;20094;-75
2021/06/07 08:30:52;;;;;;;6.88;2.85;;;27.80;72.70;;;25.12;38.90;101853.00;4972211;28;20033;-75
2021/06/07 08:33:18;;;;;;;3.75;2.40;;;27.20;75.10;;;25.64;37.87;101849.19;4969859;28;20037;-75
2021/06/07 08:35:45;;;;;;;4.80;2.50;;;27.30;76.70;;;25.16;37.57;101848.16;4995326;28;20046;-75
2021/06/07 08:38:10;;;;;;;2.80;2.30;;;27.00;75.60;;;25.62;39.54;101856.63;4993582;28;20029;-76
2021/06/07 08:40:36;;;;;;;5.35;2.40;;;27.00;74.70;;;25.42;37.88;101850.34;4996284;28;20044;-75
2021/06/07 08:43:02;;;;;;;2.88;2.42;;;26.80;72.30;;;25.79;35.61;101850.50;4987447;28;20029;-76
2021/06/07 08:45:29;;;;;;;2.65;2.15;;;26.90;78.20;;;25.69;38.64;101855.03;4958197;28;20125;-76
2021/06/07 08:47:55;;;;;;;4.53;2.50;;;27.20;78.10;;;25.64;39.82;101863.56;4977299;28;20041;-76
2021/06/07 08:50:32;;;;;;;3.33;2.28;;;27.20;79.00;;;25.91;38.34;101852.06;5007799;28;20036;-76
2021/06/07 08:52:58;;;;;;;2.67;2.20;;;27.20;75.40;;;26.23;35.42;101853.53;4976214;28;20088;-75
2021/06/07 08:55:28;;;;;;;2.67;2.17;;;27.30;74.50;;;26.49;35.98;101855.59;4975017;28;20472;-75
2021/06/07 08:57:56;;;;;;;3.05;2.25;;;27.70;74.10;;;26.66;36.55;101852.13;4992559;28;20108;-76
2021/06/07 09:00:40;;;;;;;3.47;2.13;;;28.00;75.00;;;26.97;37.73;101855.34;4974089;28;20036;-76
2021/06/07 09:03:34;;;;;;;4.15;2.30;;;28.00;75.10;;;27.06;36.07;101856.28;4932319;28;20025;-76
2021/06/07 09:06:24;;;;;;;2.67;2.30;;;27.70;74.00;;;26.69;35.62;101859.91;4939721;28;20125;-76
2021/06/07 09:09:21;;;;;;;5.13;2.40;;;27.00;73.40;;;25.51;37.38;101858.47;4941133;28;20062;-76
2021/06/07 09:12:11;;;;;;;5.97;2.35;;;27.20;77.10;;;26.52;37.35;101856.16;4940048;28;20030;-75
2021/06/07 09:15:04;;;;;;;54.53;10.65;;;27.30;78.50;;;26.47;39.70;101854.88;4933758;28;20417;-76
2021/06/07 09:18:14;;;;;;;6.05;2.55;;;27.70;76.90;;;26.33;34.99;101842.72;4896782;28;20026;-75
2021/06/07 09:21:49;;;;;;;2.28;1.75;;;27.00;69.00;;;25.53;33.67;101848.38;4925918;28;20036;-76
2021/06/07 09:25:02;;;;;;;8.18;2.10;;;26.50;73.00;;;25.36;35.05;101851.78;4928544;28;20490;-75
2021/06/07 09:28:19;;;;;;;4.68;1.95;;;26.50;75.70;;;26.07;36.60;101848.78;4944332;28;20049;-75
2021/06/07 09:31:50;;;;;;;3.25;2.17;;;26.90;73.20;;;25.52;34.85;101845.81;4937450;28;20037;-75
2021/06/07 09:35:26;;;;;;;3.78;2.50;;;26.40;73.40;;;25.24;37.43;101852.91;4953805;28;20033;-75
2021/06/07 09:38:34;;;;;;;7.53;2.58;;;26.50;75.70;;;26.13;34.46;101841.91;4928891;28;20053;-75
2021/06/07 09:41:21;;;;;;;2.67;1.90;;;26.90;73.70;;;25.99;36.73;101840.53;4953084;28;20029;-76
2021/06/07 09:44:52;;;;;;;5.00;1.98;;;26.40;76.60;;;25.49;38.27;101841.56;4919266;28;20112;-75
2021/06/07 09:47:49;;;;;;;5.07;2.38;;;26.40;76.20;;;25.50;37.60;101845.94;4958142;28;20046;-75
2021/06/07 09:51:37;;;;;;;2.30;1.83;;;26.50;73.40;;;25.45;35.01;101842.00;4931224;28;20033;-75
2021/06/07 09:55:22;;;;;;;3.25;2.00;;;26.60;72.00;;;25.25;33.74;101841.13;4958738;28;20033;-75
2021/06/07 09:58:50;;;;;;;3.83;1.80;;;26.30;69.90;;;26.03;32.90;101841.97;4935523;28;20058;-75
2021/06/07 10:02:06;;;;;;;2.85;1.98;;;26.50;71.20;;;25.89;35.54;101837.84;4933733;28;20534;-75
2021/06/07 10:05:13;;;;;;;3.10;1.70;;;26.50;70.90;;;25.60;33.77;101840.56;4932686;28;20025;-76
2021/06/07 10:08:10;;;;;;;2.53;1.88;;;26.70;71.50;;;26.06;33.48;101833.56;4928900;28;20572;-75
2021/06/07 10:10:50;;;;;;;1.98;1.75;;;26.50;68.40;;;25.41;32.24;101838.72;4951138;28;20034;-75
2021/06/07 10:13:41;;;;;;;1.90;1.80;;;26.30;70.50;;;25.16;37.47;101838.25;4939569;28;20021;-75
2021/06/07 10:16:28;;;;;;;2.30;1.88;;;26.50;71.50;;;25.45;33.18;101842.84;4939434;28;20112;-75
2021/06/07 10:19:31;;;;;;;4.82;1.58;;;26.50;71.50;;;26.23;32.91;101833.81;4943297;28;20032;-75
2021/06/07 10:22:21;;;;;;;2.15;1.88;;;27.20;68.10;;;26.46;31.56;101837.84;4948481;28;21594;-75
2021/06/07 10:25:12;;;;;;;6.03;2.15;;;26.90;69.70;;;26.32;34.70;101841.84;4924969;28;21624;-75
2021/06/07 10:27:59;;;;;;;2.10;1.60;;;26.50;72.20;;;25.98;34.36;101838.81;4932338;28;20053;-75
2021/06/07 10:30:28;;;;;;;6.85;2.20;;;26.90;71.10;;;26.59;34.48;101838.38;4993903;28;20025;-75
2021/06/07 10:32:54;;;;;;;2.45;1.80;;;27.10;70.40;;;26.66;33.18;101827.81;4987544;28;20033;-75
2021/06/07 10:35:37;;;;;;;3.33;1.80;;;27.30;68.80;;;26.43;32.29;101838.13;4985933;28;20040;-75
2021/06/07 10:38:10;;;;;;;3.53;2.03;;;27.30;69.00;;;26.74;30.65;101832.47;5003214;28;20029;-75
2021/06/07 10:40:49;;;;;;;2.72;1.65;;;27.10;68.80;;;26.34;33.73;101834.47;5002558;28;20029;-76